Lisa Ann II — WDB3573 — position and weather

sailwx.info

Track history (hours):
 
Tides and Currents Weather Stations Pressure Air Temp Water Temp Dewpoint Dewpoint Depression Visibility Wind Speed Wind Dir Waves Ship Positions

Lisa Ann II

Owner: FORD, JIM D, E KINGSTON, NH. More information available from US FCC via Universal Licensing System and Coast Guard Vessel Documentation Center.

Last reported at 2018-Apr-20 16:00 UTC. Time now 2018-Apr-21 04:10 UTC.
Position N 42°36' W 070°42'.

Length 17 m; draft 3 m.

Type: Fishing. MMSI: 366888690.

Wind from 320 at 15 knots

Barometer 1016.0 mb
Air temperature 6.4 ° C
Dewpoint -2.5 ° C

Date/timePositionNaut miles runAvg speedWind from/ knotsBaromVisibWave heightAir tempDewpointWater temp
2018-Apr-20 16:00N 42°36' W 070°42'9 8.8 320 / 151016.0 6.4-2.5
2018-Apr-20 15:00N 42°36' W 070°30'6 6.0 320 / 161016.0 5.4-2.0
2018-Apr-20 14:00N 42°30' W 070°30'0 0.0 310 / 181015.0 4.8-2.1
2018-Apr-20 13:00N 42°30' W 070°30'0 0.0 310 / 201014.0 4.2-2.0
2018-Apr-20 12:00N 42°30' W 070°30'4 4.4 310 / 181014.0 3.8-1.9
2018-Apr-20 11:00N 42°30' W 070°24'6 6.0 300 / 181014.0 3.8-1.6
2018-Apr-20 10:00N 42°24' W 070°24'7 7.5 310 / 141012.0 5.5-0.8
2018-Apr-20 09:00N 42°30' W 070°30'4 4.4 300 / 121012.0 3.9-1.1
2018-Apr-20 08:00N 42°30' W 070°36'11 0.6 310 / 121012.0 3.5-1.2
2018-Apr-19 15:00N 42°24' W 070°24'4 1.5 290 / 51008.0 2.9 1.6
2018-Apr-19 12:00N 42°24' W 070°18'11 2.1 240 / 81008.0 5.5 1.7
2018-Apr-19 07:00N 42°30' W 070°30'   270 / 121008.0 6.0 0.5
2018-Apr-14 17:00N 42°30' W 070°30'6 6.0 050 / 41020.0 7.5 5.2
2018-Apr-14 16:00N 42°36' W 070°30'6 3.0 070 / 41019.0 6.8 5.3
2018-Apr-14 14:00N 42°30' W 070°30'4 4.4 040 / 101018.0 6.4 4.8
2018-Apr-14 13:00N 42°30' W 070°24'6 2.0 050 / 131016.0 6.7 5.1
2018-Apr-14 10:00N 42°24' W 070°24'0 0.0 300 / 51013.0 5.8 5.3
2018-Apr-14 09:00N 42°24' W 070°24'0 0.0 290 / 41012.0 6.1 5.6
2018-Apr-14 08:00N 42°24' W 070°24'7 7.5 300 / 61012.0 5.9 5.3
2018-Apr-14 07:00N 42°30' W 070°30'7 7.5 320 / 31012.0 5.9 5.3
2018-Apr-14 06:00N 42°36' W 070°36'4 0.1 360 / 21013.0 6.4 5.3
2018-Apr-12 20:00N 42°36' W 070°42'4 4.4 130 / 101017.0 7.5 3.8
2018-Apr-12 19:00N 42°36' W 070°36'7 7.5 140 / 101018.0 8.1 3.8
2018-Apr-12 18:00N 42°30' W 070°30'4 4.4 150 / 81019.0 7.9 3.9
2018-Apr-12 17:00N 42°30' W 070°24'0 0.0 160 / 71020.0 6.3 2.9
2018-Apr-12 16:00N 42°30' W 070°24'0 0.0 180 / 41021.0 6.2 2.2
2018-Apr-12 15:00N 42°30' W 070°24'0 0.0 230 / 41021.0 5.1 1.8
2018-Apr-12 14:00N 42°30' W 070°24'4 4.4 240 / 71021.0 5.2 1.9
2018-Apr-12 13:00N 42°30' W 070°18'4 4.4 240 / 91021.0 5.5 1.6
2018-Apr-12 12:00N 42°30' W 070°24'7 7.5 240 / 91020.0 4.9 1.3
2018-Apr-12 11:00N 42°24' W 070°18'7 7.5 260 / 91020.0 4.5 1.0
2018-Apr-12 10:00N 42°30' W 070°24'0 0.0 240 / 91020.0 4.3 0.8
2018-Apr-12 09:00N 42°30' W 070°24'4 4.4 240 / 121019.0 4.2 0.6
2018-Apr-12 08:00N 42°30' W 070°30'1110.7 240 / 131019.0 4.1 0.4
2018-Apr-12 07:00N 42°36' W 070°42'4 0.3 230 / 41020.0 4.0 0.3
2018-Apr-11 16:00N 42°36' W 070°36'4 0.2 250 / 21024.0 0.9 0.1
2018-Apr-10 17:00N 42°36' W 070°42'4 4.4 210 / 31023.0 5.2-2.3
2018-Apr-10 16:00N 42°36' W 070°36'   210 / 41024.0 4.0-1.7
Track history (hours):
 
Tides and Currents Weather Stations Pressure Air Temp Water Temp Dewpoint Dewpoint Depression Visibility Wind Speed Wind Dir Waves Ship Positions

Lisa Ann II

Owner: FORD, JIM D, E KINGSTON, NH. More information available from US FCC via Universal Licensing System and Coast Guard Vessel Documentation Center.

Last reported at 2018-Apr-20 16:00 UTC. Time now 2018-Apr-21 04:10 UTC.
Position N 42°36' W 070°42'.

Length 17 m; draft 3 m.

Type: Fishing. MMSI: 366888690.

Wind from 320 at 15 knots

Barometer 1016.0 mb
Air temperature 6.4 ° C
Dewpoint -2.5 ° C

Date/timePositionNaut miles runAvg speedWind from/ knotsBaromVisibWave heightAir tempDewpointWater temp
2018-Apr-20 16:00N 42°36' W 070°42'9 8.8 320 / 151016.0 6.4-2.5
2018-Apr-20 15:00N 42°36' W 070°30'6 6.0 320 / 161016.0 5.4-2.0
2018-Apr-20 14:00N 42°30' W 070°30'0 0.0 310 / 181015.0 4.8-2.1
2018-Apr-20 13:00N 42°30' W 070°30'0 0.0 310 / 201014.0 4.2-2.0
2018-Apr-20 12:00N 42°30' W 070°30'4 4.4 310 / 181014.0 3.8-1.9
2018-Apr-20 11:00N 42°30' W 070°24'6 6.0 300 / 181014.0 3.8-1.6
2018-Apr-20 10:00N 42°24' W 070°24'7 7.5 310 / 141012.0 5.5-0.8
2018-Apr-20 09:00N 42°30' W 070°30'4 4.4 300 / 121012.0 3.9-1.1
2018-Apr-20 08:00N 42°30' W 070°36'11 0.6 310 / 121012.0 3.5-1.2
2018-Apr-19 15:00N 42°24' W 070°24'4 1.5 290 / 51008.0 2.9 1.6
2018-Apr-19 12:00N 42°24' W 070°18'11 2.1 240 / 81008.0 5.5 1.7
2018-Apr-19 07:00N 42°30' W 070°30'   270 / 121008.0 6.0 0.5
2018-Apr-14 17:00N 42°30' W 070°30'6 6.0 050 / 41020.0 7.5 5.2
2018-Apr-14 16:00N 42°36' W 070°30'6 3.0 070 / 41019.0 6.8 5.3
2018-Apr-14 14:00N 42°30' W 070°30'4 4.4 040 / 101018.0 6.4 4.8
2018-Apr-14 13:00N 42°30' W 070°24'6 2.0 050 / 131016.0 6.7 5.1
2018-Apr-14 10:00N 42°24' W 070°24'0 0.0 300 / 51013.0 5.8 5.3
2018-Apr-14 09:00N 42°24' W 070°24'0 0.0 290 / 41012.0 6.1 5.6
2018-Apr-14 08:00N 42°24' W 070°24'7 7.5 300 / 61012.0 5.9 5.3
2018-Apr-14 07:00N 42°30' W 070°30'7 7.5 320 / 31012.0 5.9 5.3
2018-Apr-14 06:00N 42°36' W 070°36'4 0.1 360 / 21013.0 6.4 5.3
2018-Apr-12 20:00N 42°36' W 070°42'4 4.4 130 / 101017.0 7.5 3.8
2018-Apr-12 19:00N 42°36' W 070°36'7 7.5 140 / 101018.0 8.1 3.8
2018-Apr-12 18:00N 42°30' W 070°30'4 4.4 150 / 81019.0 7.9 3.9
2018-Apr-12 17:00N 42°30' W 070°24'0 0.0 160 / 71020.0 6.3 2.9
2018-Apr-12 16:00N 42°30' W 070°24'0 0.0 180 / 41021.0 6.2 2.2
2018-Apr-12 15:00N 42°30' W 070°24'0 0.0 230 / 41021.0 5.1 1.8
2018-Apr-12 14:00N 42°30' W 070°24'4 4.4 240 / 71021.0 5.2 1.9
2018-Apr-12 13:00N 42°30' W 070°18'4 4.4 240 / 91021.0 5.5 1.6
2018-Apr-12 12:00N 42°30' W 070°24'7 7.5 240 / 91020.0 4.9 1.3
2018-Apr-12 11:00N 42°24' W 070°18'7 7.5 260 / 91020.0 4.5 1.0
2018-Apr-12 10:00N 42°30' W 070°24'0 0.0 240 / 91020.0 4.3 0.8
2018-Apr-12 09:00N 42°30' W 070°24'4 4.4 240 / 121019.0 4.2 0.6
2018-Apr-12 08:00N 42°30' W 070°30'1110.7 240 / 131019.0 4.1 0.4
2018-Apr-12 07:00N 42°36' W 070°42'4 0.3 230 / 41020.0 4.0 0.3
2018-Apr-11 16:00N 42°36' W 070°36'4 0.2 250 / 21024.0 0.9 0.1
2018-Apr-10 17:00N 42°36' W 070°42'4 4.4 210 / 31023.0 5.2-2.3
2018-Apr-10 16:00N 42°36' W 070°36'   210 / 41024.0 4.0-1.7

Dump ship's entire track history